Time;durP1;ratioP1;P1;durP2;ratioP2;P2;SDS_P1;SDS_P2;PMS_P1;PMS_P2;Temp;Humidity;BMP_temperature;BMP_pressure;BME280_temperature;BME280_humidity;BME280_pressure;Samples;Min_cycle;Max_cycle;Signal;HPM_P1;HPM_P2
2023/06/25 00:01:16;;;;;;;4.20;3.90;;;;;;;;;;5031574;28;20451;-76
2023/06/25 00:03:42;;;;;;;4.47;4.10;;;;;;;;;;5031698;28;20394;-76
2023/06/25 00:06:08;;;;;;;4.40;4.10;;;;;;;;;;5044316;28;20771;-77
2023/06/25 00:08:34;;;;;;;4.65;4.25;;;;;;;;;;5031714;28;20375;-77
2023/06/25 00:11:00;;;;;;;4.30;4.00;;;;;;;;;;5031532;28;20390;-76
2023/06/25 00:13:26;;;;;;;4.47;4.13;;;;;;;;;;5031495;28;20383;-76
2023/06/25 00:15:52;;;;;;;4.30;4.00;;;;;;;;;;5031234;28;20387;-76
2023/06/25 00:18:18;;;;;;;4.38;4.05;;;;;;;;;;5031415;28;20402;-76
2023/06/25 00:20:46;;;;;;;4.38;3.97;;;;;;;;;;5040619;28;20854;-76
2023/06/25 00:23:12;;;;;;;4.38;3.90;;;;;;;;;;5035771;28;20379;-77
2023/06/25 00:25:38;;;;;;;6.60;4.00;;;;;;;;;;5031314;28;20490;-76
2023/06/25 00:28:08;;;;;;;4.00;3.70;;;;;;;;;;5058281;28;20970;-77
2023/06/25 00:30:34;;;;;;;4.65;4.25;;;;;;;;;;5031206;28;20710;-76
2023/06/25 00:33:00;;;;;;;4.32;4.00;;;;;;;;;;5031328;28;20466;-76
2023/06/25 00:35:28;;;;;;;4.32;3.95;;;;;;;;;;5031209;28;20529;-76
2023/06/25 00:37:58;;;;;;;4.38;3.80;;;;;;;;;;5031232;28;20884;-76
2023/06/25 00:40:24;;;;;;;4.70;4.20;;;;;;;;;;5036460;28;20462;-77
2023/06/25 00:42:56;;;;;;;4.22;3.92;;;;;;;;;;5038243;28;20440;-76
2023/06/25 00:45:26;;;;;;;4.00;3.70;;;;;;;;;;5043047;28;20407;-76
2023/06/25 00:47:52;;;;;;;4.30;3.90;;;;;;;;;;5039226;28;20881;-77
2023/06/25 00:50:21;;;;;;;5.20;3.87;;;;;;;;;;5044156;28;20377;-76
2023/06/25 00:52:51;;;;;;;4.47;4.18;;;;;;;;;;5043688;28;20926;-76
2023/06/25 00:55:17;;;;;;;4.30;4.00;;;;;;;;;;5040751;28;20803;-76
2023/06/25 00:57:43;;;;;;;4.30;4.00;;;;;;;;;;5035071;28;20876;-77
2023/06/25 01:00:14;;;;;;;4.20;3.90;;;;;;;;;;5030996;28;20395;-76
2023/06/25 01:02:43;;;;;;;4.13;3.83;;;;;;;;;;5030798;28;20433;-76
2023/06/25 01:05:23;;;;;;;4.30;4.00;;;;;;;;;;5037852;28;20402;-77
2023/06/25 01:07:50;;;;;;;5.13;4.03;;;;;;;;;;5035923;28;20776;-76
2023/06/25 01:10:16;;;;;;;4.40;4.00;;;;;;;;;;5037940;28;20382;-76
2023/06/25 01:12:45;;;;;;;4.60;4.30;;;;;;;;;;5037714;28;20433;-77
2023/06/25 01:15:11;;;;;;;4.15;3.80;;;;;;;;;;5030638;28;20474;-76
2023/06/25 01:17:39;;;;;;;4.32;4.03;;;;;;;;;;5030895;28;20394;-76
2023/06/25 01:20:05;;;;;;;4.75;4.35;;;;;;;;;;5034573;28;20468;-76
2023/06/25 01:22:32;;;;;;;3.97;3.67;;;;;;;;;;5040768;28;20874;-76
2023/06/25 01:24:58;;;;;;;4.72;4.30;;;;;;;;;;5029284;28;20815;-76
2023/06/25 01:27:24;;;;;;;4.45;4.05;;;;;;;;;;5030600;28;20396;-76
2023/06/25 01:29:50;;;;;;;3.80;3.60;;;;;;;;;;5036140;28;20768;-76
2023/06/25 01:32:19;;;;;;;4.25;3.85;;;;;;;;;;5047616;28;20386;-76
2023/06/25 01:34:45;;;;;;;4.28;3.97;;;;;;;;;;5034541;28;20383;-77
2023/06/25 01:37:11;;;;;;;4.68;4.28;;;;;;;;;;5034452;28;20879;-76
2023/06/25 01:39:37;;;;;;;4.63;4.22;;;;;;;;;;5038460;28;20780;-76
2023/06/25 01:42:04;;;;;;;4.20;3.90;;;;;;;;;;5034150;28;20906;-77
2023/06/25 01:44:31;;;;;;;4.93;3.70;;;;;;;;;;5034256;28;20394;-77
2023/06/25 01:46:57;;;;;;;4.40;4.10;;;;;;;;;;5044219;28;20504;-77
2023/06/25 01:49:23;;;;;;;4.60;4.30;;;;;;;;;;5034404;28;20387;-76
2023/06/25 01:51:49;;;;;;;4.65;4.30;;;;;;;;;;5039599;28;20483;-76
2023/06/25 01:54:15;;;;;;;4.43;4.03;;;;;;;;;;5055305;28;20379;-77
2023/06/25 01:56:42;;;;;;;4.17;3.87;;;;;;;;;;5043921;28;20924;-76
2023/06/25 01:59:08;;;;;;;4.40;4.10;;;;;;;;;;5054044;28;20381;-76
2023/06/25 02:01:35;;;;;;;4.07;3.75;;;;;;;;;;5034250;28;20387;-77
2023/06/25 02:04:01;;;;;;;4.22;3.92;;;;;;;;;;5047944;28;20391;-76
2023/06/25 02:06:26;;;;;;;4.47;4.13;;;;;;;;;;5032556;28;20468;-77
2023/06/25 02:08:53;;;;;;;4.70;4.30;;;;;;;;;;5033041;28;20799;-77
2023/06/25 02:11:19;;;;;;;4.15;3.85;;;;;;;;;;5044087;28;20488;-76
2023/06/25 02:13:45;;;;;;;4.63;4.22;;;;;;;;;;5050850;28;20465;-76
2023/06/25 02:16:11;;;;;;;4.20;3.90;;;;;;;;;;5050031;28;20389;-76
2023/06/25 02:18:37;;;;;;;4.10;3.80;;;;;;;;;;5036353;28;20462;-76
2023/06/25 02:21:03;;;;;;;4.55;4.15;;;;;;;;;;5047452;28;20409;-76
2023/06/25 02:23:29;;;;;;;4.32;3.92;;;;;;;;;;5033545;28;20483;-76
2023/06/25 02:25:55;;;;;;;4.20;3.80;;;;;;;;;;5033343;28;20407;-76
2023/06/25 02:28:21;;;;;;;4.32;4.03;;;;;;;;;;5040707;28;20410;-76
2023/06/25 02:30:47;;;;;;;4.80;4.35;;;;;;;;;;5035661;28;20414;-76
2023/06/25 02:33:13;;;;;;;3.92;3.63;;;;;;;;;;5053496;28;20393;-76
2023/06/25 02:35:40;;;;;;;4.57;4.18;;;;;;;;;;5052139;28;20480;-76
2023/06/25 02:38:06;;;;;;;4.25;3.85;;;;;;;;;;5053183;28;20389;-76
2023/06/25 02:40:32;;;;;;;4.25;3.95;;;;;;;;;;5052823;28;20409;-76
2023/06/25 02:42:58;;;;;;;4.43;4.13;;;;;;;;;;5052346;28;20381;-76
2023/06/25 02:45:24;;;;;;;5.30;4.80;;;;;;;;;;5052952;28;20405;-76
2023/06/25 02:47:50;;;;;;;4.30;3.90;;;;;;;;;;5053075;28;20459;-76
2023/06/25 02:50:16;;;;;;;4.30;4.00;;;;;;;;;;5038675;28;20380;-76
2023/06/25 02:52:43;;;;;;;4.90;4.50;;;;;;;;;;5041617;28;20387;-76
2023/06/25 02:55:09;;;;;;;4.85;4.47;;;;;;;;;;5032419;28;20392;-77
2023/06/25 02:57:35;;;;;;;4.80;4.30;;;;;;;;;;5032031;28;20877;-76
2023/06/25 03:00:01;;;;;;;4.97;4.47;;;;;;;;;;5044150;28;20381;-76
2023/06/25 03:02:27;;;;;;;4.70;4.30;;;;;;;;;;5047734;28;20379;-77
2023/06/25 03:04:53;;;;;;;4.63;4.25;;;;;;;;;;5042995;28;20460;-76
2023/06/25 03:07:19;;;;;;;4.45;4.05;;;;;;;;;;5033730;28;20467;-76
2023/06/25 03:09:45;;;;;;;4.63;4.32;;;;;;;;;;5032713;28;20852;-76
2023/06/25 03:12:11;;;;;;;5.03;4.63;;;;;;;;;;5032407;28;20434;-76
2023/06/25 03:14:37;;;;;;;4.30;4.00;;;;;;;;;;5032664;28;20433;-76
2023/06/25 03:17:04;;;;;;;4.72;4.32;;;;;;;;;;5032466;28;20390;-77
2023/06/25 03:19:30;;;;;;;4.70;4.30;;;;;;;;;;5039351;28;20385;-76
2023/06/25 03:21:57;;;;;;;4.70;4.30;;;;;;;;;;5049724;28;20389;-76
2023/06/25 03:24:23;;;;;;;4.50;4.20;;;;;;;;;;5035456;28;20487;-76
2023/06/25 03:26:49;;;;;;;5.13;4.63;;;;;;;;;;5038737;28;20939;-76
2023/06/25 03:29:15;;;;;;;4.90;4.53;;;;;;;;;;5032270;28;20466;-77
2023/06/25 03:31:40;;;;;;;5.20;4.80;;;;;;;;;;5030977;28;20391;-76
2023/06/25 03:34:06;;;;;;;4.65;4.25;;;;;;;;;;5032179;28;20861;-77
2023/06/25 03:36:32;;;;;;;4.80;4.40;;;;;;;;;;5032186;28;20379;-76
2023/06/25 03:38:59;;;;;;;4.90;4.50;;;;;;;;;;5032178;28;20391;-76
2023/06/25 03:41:25;;;;;;;4.80;4.40;;;;;;;;;;5045953;28;20390;-76
2023/06/25 03:43:51;;;;;;;4.70;4.30;;;;;;;;;;5030854;28;20395;-76
2023/06/25 03:46:17;;;;;;;4.40;4.10;;;;;;;;;;5031842;28;20407;-76
2023/06/25 03:48:43;;;;;;;4.30;4.00;;;;;;;;;;5031356;28;20868;-76
2023/06/25 03:51:10;;;;;;;4.82;4.43;;;;;;;;;;5039658;28;20633;-77
2023/06/25 03:53:38;;;;;;;4.70;4.30;;;;;;;;;;5031920;28;20398;-76
2023/06/25 03:56:04;;;;;;;4.70;4.40;;;;;;;;;;5031955;28;20383;-76
2023/06/25 03:58:30;;;;;;;4.60;4.20;;;;;;;;;;5041739;28;20408;-76
2023/06/25 04:00:56;;;;;;;4.95;4.63;;;;;;;;;;5062592;28;20430;-76
2023/06/25 04:03:22;;;;;;;4.90;4.50;;;;;;;;;;5036377;28;20463;-76
2023/06/25 04:05:49;;;;;;;4.70;4.40;;;;;;;;;;5036164;28;20403;-76
2023/06/25 04:08:15;;;;;;;5.30;4.80;;;;;;;;;;5035583;28;20880;-77
2023/06/25 04:10:41;;;;;;;5.15;4.78;;;;;;;;;;5048334;28;20389;-76
2023/06/25 04:13:07;;;;;;;4.72;4.32;;;;;;;;;;5037140;28;20860;-76
2023/06/25 04:15:33;;;;;;;4.63;4.28;;;;;;;;;;5050606;28;20408;-76
2023/06/25 04:17:59;;;;;;;4.80;4.40;;;;;;;;;;5051473;28;20452;-76
2023/06/25 04:20:27;;;;;;;5.30;4.90;;;;;;;;;;5047366;28;20398;-76
2023/06/25 04:22:53;;;;;;;5.83;4.47;;;;;;;;;;5044598;28;20828;-76
2023/06/25 04:25:19;;;;;;;4.85;4.50;;;;;;;;;;5044200;28;20405;-76
2023/06/25 04:27:45;;;;;;;4.88;4.47;;;;;;;;;;5032226;28;20375;-76
2023/06/25 04:30:12;;;;;;;5.10;4.70;;;;;;;;;;5028802;28;20387;-76
2023/06/25 04:32:38;;;;;;;5.20;4.70;;;;;;;;;;5031096;28;20459;-76
2023/06/25 04:35:04;;;;;;;4.47;4.18;;;;;;;;;;5031026;28;20896;-77
2023/06/25 04:37:30;;;;;;;4.75;4.35;;;;;;;;;;5034222;28;20419;-76
2023/06/25 04:39:56;;;;;;;4.63;4.28;;;;;;;;;;5034334;28;20422;-77
2023/06/25 04:42:22;;;;;;;5.05;4.65;;;;;;;;;;5040334;28;20876;-77
2023/06/25 04:44:48;;;;;;;4.93;4.43;;;;;;;;;;5040144;28;20382;-77
2023/06/25 04:47:14;;;;;;;5.13;4.72;;;;;;;;;;5041564;28;20427;-78
2023/06/25 04:49:40;;;;;;;5.03;4.60;;;;;;;;;;5041176;28;20467;-77
2023/06/25 04:52:06;;;;;;;4.80;4.40;;;;;;;;;;5041714;28;20979;-77
2023/06/25 04:54:32;;;;;;;4.78;4.38;;;;;;;;;;5033309;28;20387;-76
2023/06/25 04:56:58;;;;;;;4.53;4.22;;;;;;;;;;5034213;28;20474;-77
2023/06/25 04:59:24;;;;;;;6.22;4.50;;;;;;;;;;5032036;28;20442;-78
2023/06/25 05:01:50;;;;;;;4.72;4.32;;;;;;;;;;5034973;28;20406;-77
2023/06/25 05:04:16;;;;;;;4.55;4.15;;;;;;;;;;5043790;28;20761;-77
2023/06/25 05:06:42;;;;;;;4.70;4.30;;;;;;;;;;5042394;28;20492;-77
2023/06/25 05:09:08;;;;;;;4.60;4.20;;;;;;;;;;5039670;28;20395;-76
2023/06/25 05:11:34;;;;;;;4.80;4.40;;;;;;;;;;5046472;28;20377;-78
2023/06/25 05:14:00;;;;;;;4.78;4.38;;;;;;;;;;5037819;28;20396;-78
2023/06/25 05:16:29;;;;;;;4.40;3.97;;;;;;;;;;5046301;28;20387;-77
2023/06/25 05:18:55;;;;;;;4.55;4.15;;;;;;;;;;5042483;28;20423;-76
2023/06/25 05:21:21;;;;;;;4.50;4.10;;;;;;;;;;5047648;28;20409;-76
2023/06/25 05:24:00;;;;;;;4.50;4.20;;;;;;;;;;5038570;28;20723;-77
2023/06/25 05:26:27;;;;;;;4.78;4.38;;;;;;;;;;5032779;28;20959;-76
2023/06/25 05:28:53;;;;;;;5.07;4.68;;;;;;;;;;5032722;28;20853;-76
2023/06/25 05:31:19;;;;;;;4.50;4.20;;;;;;;;;;5032742;28;20379;-76
2023/06/25 05:33:45;;;;;;;4.55;4.15;;;;;;;;;;5032775;28;20390;-76
2023/06/25 05:36:12;;;;;;;4.75;4.45;;;;;;;;;;5034097;28;20426;-76
2023/06/25 05:38:38;;;;;;;4.95;4.55;;;;;;;;;;5034341;28;20411;-76
2023/06/25 05:41:04;;;;;;;4.80;4.50;;;;;;;;;;5050889;28;20830;-76
2023/06/25 05:43:30;;;;;;;4.40;4.00;;;;;;;;;;5054347;28;20393;-76
2023/06/25 05:45:56;;;;;;;4.72;4.35;;;;;;;;;;5039480;28;20915;-76
2023/06/25 05:48:22;;;;;;;4.40;4.10;;;;;;;;;;5034243;28;20379;-76
2023/06/25 05:50:48;;;;;;;5.05;4.65;;;;;;;;;;5040437;28;20932;-77
2023/06/25 05:53:14;;;;;;;4.67;4.27;;;;;;;;;;5036542;28;20433;-76
2023/06/25 05:55:40;;;;;;;5.85;4.20;;;;;;;;;;5034209;28;20477;-76
2023/06/25 05:58:06;;;;;;;4.85;4.45;;;;;;;;;;5034051;28;20391;-76
2023/06/25 06:00:32;;;;;;;5.70;5.20;;;;;;;;;;5046885;28;20394;-76
2023/06/25 06:02:58;;;;;;;4.95;4.55;;;;;;;;;;5037126;28;20857;-76
2023/06/25 06:05:24;;;;;;;5.50;5.10;;;;;;;;;;5058623;28;20494;-76
2023/06/25 06:07:50;;;;;;;5.03;4.63;;;;;;;;;;5033163;28;20445;-77
2023/06/25 06:10:16;;;;;;;5.20;4.57;;;;;;;;;;5035422;28;20380;-77
2023/06/25 06:12:43;;;;;;;5.20;4.82;;;;;;;;;;5040060;28;20407;-77
2023/06/25 06:15:09;;;;;;;5.75;5.00;;;;;;;;;;5048770;28;20909;-77
2023/06/25 06:17:35;;;;;;;5.10;4.60;;;;;;;;;;5039919;28;20383;-76
2023/06/25 06:20:01;;;;;;;5.67;5.20;;;;;;;;;;5049922;28;20893;-77
2023/06/25 06:22:27;;;;;;;5.18;4.78;;;;;;;;;;5042223;28;20378;-77
2023/06/25 06:24:53;;;;;;;5.35;4.88;;;;;;;;;;5047980;28;20392;-77
2023/06/25 06:27:19;;;;;;;5.10;4.70;;;;;;;;;;5049175;28;20391;-77
2023/06/25 06:29:45;;;;;;;4.47;4.07;;;;;;;;;;5050366;28;20409;-77
2023/06/25 06:32:11;;;;;;;5.18;4.78;;;;;;;;;;5046419;28;20462;-77
2023/06/25 06:34:37;;;;;;;4.38;4.07;;;;;;;;;;5045753;28;20863;-77
2023/06/25 06:37:05;;;;;;;5.03;4.63;;;;;;;;;;5053054;28;20413;-77
2023/06/25 06:39:31;;;;;;;5.07;4.70;;;;;;;;;;5044508;28;20887;-79
2023/06/25 06:41:57;;;;;;;5.13;4.63;;;;;;;;;;5045286;28;20387;-77
2023/06/25 06:44:23;;;;;;;5.22;4.78;;;;;;;;;;5053141;28;20732;-77
2023/06/25 06:46:49;;;;;;;5.30;4.90;;;;;;;;;;5053103;28;20786;-78
2023/06/25 06:49:19;;;;;;;5.10;4.70;;;;;;;;;;5052101;28;20958;-77
2023/06/25 06:51:45;;;;;;;5.82;4.70;;;;;;;;;;5052787;28;20965;-77
2023/06/25 06:54:11;;;;;;;5.10;4.70;;;;;;;;;;5051717;28;20937;-77
2023/06/25 06:56:38;;;;;;;5.03;4.63;;;;;;;;;;5052850;28;20393;-77
2023/06/25 06:59:04;;;;;;;4.70;4.30;;;;;;;;;;5052826;28;20462;-77
2023/06/25 07:01:30;;;;;;;4.97;4.57;;;;;;;;;;5052670;28;20390;-77
2023/06/25 07:03:56;;;;;;;4.37;4.07;;;;;;;;;;5052636;28;20426;-77
2023/06/25 07:06:22;;;;;;;4.38;4.07;;;;;;;;;;5045289;28;20415;-77
2023/06/25 07:08:48;;;;;;;4.32;4.00;;;;;;;;;;5046815;28;20418;-77
2023/06/25 07:11:16;;;;;;;4.80;4.50;;;;;;;;;;5044718;28;20380;-78
2023/06/25 07:13:43;;;;;;;4.30;4.00;;;;;;;;;;5039576;28;20461;-78
2023/06/25 07:16:09;;;;;;;3.90;3.60;;;;;;;;;;5037644;28;20470;-78
2023/06/25 07:18:35;;;;;;;4.20;3.90;;;;;;;;;;5045645;28;20404;-78
2023/06/25 07:21:02;;;;;;;4.50;4.20;;;;;;;;;;5035336;28;20383;-78
2023/06/25 07:23:28;;;;;;;4.32;4.03;;;;;;;;;;5043389;28;20472;-78
2023/06/25 07:25:54;;;;;;;4.32;4.03;;;;;;;;;;5033696;28;20406;-77
2023/06/25 07:28:20;;;;;;;4.20;3.80;;;;;;;;;;5032245;28;20375;-89
2023/06/25 07:30:47;;;;;;;4.38;3.97;;;;;;;;;;5045408;28;20413;-86
2023/06/25 07:33:13;;;;;;;3.75;3.45;;;;;;;;;;5044737;28;20867;-86
2023/06/25 07:35:39;;;;;;;4.20;3.90;;;;;;;;;;5041145;28;20485;-87
2023/06/25 07:38:04;;;;;;;3.97;3.65;;;;;;;;;;5041752;28;20408;-87
2023/06/25 07:40:30;;;;;;;4.20;3.90;;;;;;;;;;5042577;28;20397;-89
2023/06/25 07:42:56;;;;;;;4.35;4.03;;;;;;;;;;5046506;28;20451;-85
2023/06/25 07:45:22;;;;;;;4.00;3.70;;;;;;;;;;5041714;28;20413;-89
2023/06/25 07:47:49;;;;;;;4.13;3.83;;;;;;;;;;5048451;28;20560;-86
2023/06/25 07:50:15;;;;;;;4.13;3.83;;;;;;;;;;5050758;28;20432;-89
2023/06/25 07:52:41;;;;;;;3.90;3.60;;;;;;;;;;5051676;28;20425;-87
2023/06/25 07:55:07;;;;;;;4.10;3.80;;;;;;;;;;5044081;28;20877;-89
2023/06/25 07:57:33;;;;;;;3.95;3.67;;;;;;;;;;5059475;28;20471;-87
2023/06/25 07:59:59;;;;;;;4.07;3.78;;;;;;;;;;5059653;28;20373;-87
2023/06/25 08:02:25;;;;;;;4.15;3.70;;;;;;;;;;5048990;28;20377;-86
2023/06/25 08:04:51;;;;;;;4.88;3.70;;;;;;;;;;5042607;28;21761;-88
2023/06/25 08:07:17;;;;;;;3.63;3.33;;;;;;;;;;5031781;28;20411;-90
2023/06/25 08:09:44;;;;;;;3.88;3.58;;;;;;;;;;5043836;28;20420;-87
2023/06/25 08:12:11;;;;;;;4.07;3.78;;;;;;;;;;5051436;28;20435;-87
2023/06/25 08:14:37;;;;;;;3.83;3.53;;;;;;;;;;5048430;28;20460;-84
2023/06/25 08:17:03;;;;;;;3.70;3.45;;;;;;;;;;5036503;28;20893;-89
2023/06/25 08:19:29;;;;;;;3.63;3.42;;;;;;;;;;5041126;28;20382;-89
2023/06/25 08:21:55;;;;;;;3.80;3.50;;;;;;;;;;5047120;28;20446;-89
2023/06/25 08:24:21;;;;;;;3.80;3.50;;;;;;;;;;5050608;28;20393;-87
2023/06/25 08:26:47;;;;;;;4.03;3.72;;;;;;;;;;5039677;28;20425;-89
2023/06/25 08:29:13;;;;;;;3.80;3.50;;;;;;;;;;5045499;28;20593;-91
2023/06/25 08:31:39;;;;;;;4.00;3.70;;;;;;;;;;5058483;28;20928;-93
2023/06/25 08:34:07;;;;;;;3.53;3.33;;;;;;;;;;5055965;28;20396;-93
2023/06/25 08:36:36;;;;;;;3.33;3.13;;;;;;;;;;5066109;28;20466;-93
2023/06/25 08:39:02;;;;;;;3.92;3.35;;;;;;;;;;5053018;28;20403;-93
2023/06/25 08:44:12;;;;;;;3.90;3.60;;;;;;;;;;5052608;22;21002;-92
2023/06/25 08:46:41;;;;;;;3.97;3.67;;;;;;;;;;5015592;28;20409;-92
2023/06/25 08:49:20;;;;;;;3.38;3.17;;;;;;;;;;5025789;28;20379;-92
2023/06/25 08:51:49;;;;;;;5.00;3.63;;;;;;;;;;4998604;28;20439;-91
2023/06/25 08:54:18;;;;;;;3.70;3.40;;;;;;;;;;5011684;28;20439;-91
2023/06/25 08:59:43;;;;;;;;;;;;;;;;;;;;;
2023/06/25 09:02:12;;;;;;;3.40;3.20;;;;;;;;;;5070723;22;20432;-91
2023/06/25 09:04:46;;;;;;;3.42;3.13;;;;;;;;;;5033372;28;21028;-91
2023/06/25 09:07:28;;;;;;;3.50;3.20;;;;;;;;;;5043276;28;20414;-92
2023/06/25 09:10:00;;;;;;;3.60;3.35;;;;;;;;;;5030691;28;20386;-93
2023/06/25 09:12:33;;;;;;;3.70;3.40;;;;;;;;;;5014031;28;20399;-92
2023/06/25 09:15:02;;;;;;;3.75;3.35;;;;;;;;;;4999918;28;20491;-93
2023/06/25 09:17:36;;;;;;;3.80;3.50;;;;;;;;;;5022537;28;20389;-92
2023/06/25 09:20:03;;;;;;;3.35;3.13;;;;;;;;;;5021717;28;20389;-91
2023/06/25 09:22:55;;;;;;;3.55;3.25;;;;;;;;;;5010160;28;20403;-93
2023/06/25 09:25:25;;;;;;;3.80;3.50;;;;;;;;;;4989386;28;20387;-92
2023/06/25 09:28:00;;;;;;;3.45;3.25;;;;;;;;;;5013961;28;20438;-91
2023/06/25 09:30:27;;;;;;;3.60;3.30;;;;;;;;;;5031160;28;20383;-91
2023/06/25 09:32:53;;;;;;;3.58;3.38;;;;;;;;;;5031170;28;20876;-92
2023/06/25 09:35:43;;;;;;;3.42;3.22;;;;;;;;;;4999502;28;20475;-93
2023/06/25 09:38:09;;;;;;;3.40;3.20;;;;;;;;;;5012592;28;20475;-91
2023/06/25 09:40:35;;;;;;;3.50;3.25;;;;;;;;;;5023770;28;20396;-92
2023/06/25 09:43:05;;;;;;;3.30;3.00;;;;;;;;;;5020018;28;20371;-91
2023/06/25 09:45:41;;;;;;;3.38;3.17;;;;;;;;;;5030912;28;20471;-91
2023/06/25 09:48:19;;;;;;;4.28;3.05;;;;;;;;;;5023293;28;20431;-92
2023/06/25 09:50:49;;;;;;;3.40;3.10;;;;;;;;;;5028334;28;20861;-92
2023/06/25 09:53:19;;;;;;;3.63;3.30;;;;;;;;;;5002909;28;20387;-91
2023/06/25 09:55:52;;;;;;;3.35;3.00;;;;;;;;;;5014050;28;20399;-92
2023/06/25 09:58:20;;;;;;;3.88;3.10;;;;;;;;;;5021461;28;20922;-92
2023/06/25 10:00:47;;;;;;;3.10;2.90;;;;;;;;;;5034018;28;20461;-91
2023/06/25 10:03:16;;;;;;;3.15;2.85;;;;;;;;;;5034573;28;20391;-92
2023/06/25 10:05:43;;;;;;;2.92;2.72;;;;;;;;;;5023997;28;20865;-92
2023/06/25 10:08:12;;;;;;;3.20;3.00;;;;;;;;;;5033210;28;20387;-91
2023/06/25 10:10:41;;;;;;;3.42;3.13;;;;;;;;;;5034543;28;20383;-92
2023/06/25 10:13:09;;;;;;;3.00;2.80;;;;;;;;;;5016407;28;20391;-93
2023/06/25 10:15:35;;;;;;;2.80;2.60;;;;;;;;;;5034468;28;20474;-92
2023/06/25 10:18:07;;;;;;;3.17;2.97;;;;;;;;;;5018253;28;20392;-91
2023/06/25 10:20:35;;;;;;;3.13;2.92;;;;;;;;;;5014096;28;20377;-91
2023/06/25 10:23:11;;;;;;;3.40;3.10;;;;;;;;;;5015252;28;20392;-90
2023/06/25 10:25:40;;;;;;;3.20;3.00;;;;;;;;;;5016310;28;20490;-91
2023/06/25 10:28:13;;;;;;;3.20;3.00;;;;;;;;;;5034012;28;20383;-92
2023/06/25 10:30:49;;;;;;;3.40;3.20;;;;;;;;;;5025882;28;20392;-92
2023/06/25 10:33:18;;;;;;;3.13;2.90;;;;;;;;;;5015055;28;20427;-92
2023/06/25 10:35:49;;;;;;;3.00;2.80;;;;;;;;;;5025348;28;20457;-90
2023/06/25 10:38:18;;;;;;;3.00;2.80;;;;;;;;;;5033963;28;20426;-91
2023/06/25 10:40:47;;;;;;;3.03;2.83;;;;;;;;;;5033674;28;20425;-91
2023/06/25 10:43:17;;;;;;;3.22;3.03;;;;;;;;;;5020756;28;20377;-90
2023/06/25 10:45:50;;;;;;;2.83;2.63;;;;;;;;;;5018612;28;20446;-91
2023/06/25 10:48:18;;;;;;;3.25;2.95;;;;;;;;;;5003889;28;20455;-91
2023/06/25 10:50:51;;;;;;;3.10;2.90;;;;;;;;;;5023491;28;20391;-91
2023/06/25 10:53:19;;;;;;;3.22;3.03;;;;;;;;;;5025272;28;20385;-91
2023/06/25 10:55:50;;;;;;;3.15;2.95;;;;;;;;;;5027427;28;20413;-91
2023/06/25 10:58:19;;;;;;;2.90;2.70;;;;;;;;;;5027434;28;20375;-91
2023/06/25 11:00:46;;;;;;;3.20;3.00;;;;;;;;;;5035058;28;20485;-91
2023/06/25 11:03:12;;;;;;;3.30;3.10;;;;;;;;;;5033730;28;20383;-90
2023/06/25 11:05:43;;;;;;;3.30;3.10;;;;;;;;;;5000507;28;20418;-89
2023/06/25 11:08:09;;;;;;;3.05;2.85;;;;;;;;;;5026310;28;20397;-91
2023/06/25 11:10:38;;;;;;;3.15;2.85;;;;;;;;;;5012116;28;20392;-91
2023/06/25 11:13:07;;;;;;;2.95;2.75;;;;;;;;;;5022546;28;20399;-91
2023/06/25 11:15:33;;;;;;;2.90;2.70;;;;;;;;;;5015501;28;20457;-90
2023/06/25 11:18:00;;;;;;;3.08;2.88;;;;;;;;;;5015212;28;20383;-90
2023/06/25 11:20:27;;;;;;;2.93;2.73;;;;;;;;;;5012276;28;20439;-90
2023/06/25 11:22:55;;;;;;;3.20;3.00;;;;;;;;;;5012024;28;20487;-90
2023/06/25 11:25:21;;;;;;;3.13;2.92;;;;;;;;;;5013266;28;20392;-91
2023/06/25 11:27:50;;;;;;;3.08;2.88;;;;;;;;;;5013194;28;20866;-89
2023/06/25 11:30:16;;;;;;;3.15;2.95;;;;;;;;;;5031662;28;20387;-90
2023/06/25 11:32:44;;;;;;;3.00;2.80;;;;;;;;;;5032819;28;20736;-91
2023/06/25 11:35:11;;;;;;;3.30;3.10;;;;;;;;;;5019073;28;20379;-91
2023/06/25 11:38:03;;;;;;;3.17;2.97;;;;;;;;;;5015334;28;20442;-90
2023/06/25 11:40:41;;;;;;;3.10;2.90;;;;;;;;;;5029994;28;20438;-91
2023/06/25 11:43:11;;;;;;;3.08;2.88;;;;;;;;;;5032956;28;20411;-91
2023/06/25 11:45:41;;;;;;;3.20;3.00;;;;;;;;;;5032183;28;20383;-90
2023/06/25 11:48:11;;;;;;;3.10;2.90;;;;;;;;;;5024318;28;20400;-90
2023/06/25 11:50:37;;;;;;;3.50;3.30;;;;;;;;;;5001049;28;20429;-91
2023/06/25 11:53:03;;;;;;;3.30;3.10;;;;;;;;;;5032203;28;20380;-91
2023/06/25 11:55:30;;;;;;;3.25;3.05;;;;;;;;;;5031991;28;20406;-89
2023/06/25 11:57:56;;;;;;;3.13;2.92;;;;;;;;;;4999188;28;20470;-90
2023/06/25 12:00:23;;;;;;;3.80;3.40;;;;;;;;;;5020551;28;20454;-91
2023/06/25 12:02:49;;;;;;;3.50;3.30;;;;;;;;;;5003825;28;20410;-90
2023/06/25 12:05:16;;;;;;;3.50;3.20;;;;;;;;;;5023152;28;20392;-91
2023/06/25 12:07:41;;;;;;;3.65;3.38;;;;;;;;;;5024906;28;20410;-90
2023/06/25 12:10:08;;;;;;;3.33;3.03;;;;;;;;;;5012142;28;20377;-91
2023/06/25 12:12:34;;;;;;;3.37;3.17;;;;;;;;;;5011760;28;20512;-89
2023/06/25 12:15:00;;;;;;;3.90;3.70;;;;;;;;;;5017013;28;20764;-90
2023/06/25 12:17:26;;;;;;;3.75;3.55;;;;;;;;;;5020501;28;20491;-90
2023/06/25 12:19:52;;;;;;;3.63;3.33;;;;;;;;;;5025641;28;20388;-90
2023/06/25 12:22:18;;;;;;;3.40;3.20;;;;;;;;;;5020985;28;20386;-89
2023/06/25 12:24:44;;;;;;;3.38;3.08;;;;;;;;;;5031449;28;20372;-89
2023/06/25 12:27:10;;;;;;;3.28;3.08;;;;;;;;;;5031534;28;20375;-89
2023/06/25 12:29:42;;;;;;;3.35;3.15;;;;;;;;;;5012350;28;20403;-92
2023/06/25 12:32:08;;;;;;;3.30;3.10;;;;;;;;;;5016106;28;20903;-90
2023/06/25 12:34:36;;;;;;;3.28;3.08;;;;;;;;;;4998596;28;20381;-90
2023/06/25 12:37:02;;;;;;;3.60;3.30;;;;;;;;;;4996659;28;20413;-90
2023/06/25 12:39:28;;;;;;;3.60;3.40;;;;;;;;;;5000954;28;20386;-89
2023/06/25 12:41:54;;;;;;;3.23;3.03;;;;;;;;;;5007161;28;20377;-90
2023/06/25 12:44:20;;;;;;;3.30;3.10;;;;;;;;;;5010693;28;20742;-89
2023/06/25 12:46:46;;;;;;;3.53;3.33;;;;;;;;;;5011614;28;20669;-89
2023/06/25 12:49:12;;;;;;;3.60;3.40;;;;;;;;;;5007234;28;20452;-88
2023/06/25 12:51:38;;;;;;;3.25;3.05;;;;;;;;;;5006619;28;20392;-85
2023/06/25 12:54:04;;;;;;;3.90;3.60;;;;;;;;;;5010936;28;20380;-88
2023/06/25 12:56:31;;;;;;;3.20;3.00;;;;;;;;;;5008749;28;20400;-87
2023/06/25 12:58:57;;;;;;;3.88;3.58;;;;;;;;;;5007832;28;20393;-88
2023/06/25 13:01:23;;;;;;;3.40;3.17;;;;;;;;;;5006859;28;20405;-86
2023/06/25 13:03:49;;;;;;;3.40;3.20;;;;;;;;;;5002536;28;20376;-85
2023/06/25 13:06:15;;;;;;;3.40;3.20;;;;;;;;;;5007106;28;20393;-85
2023/06/25 13:08:41;;;;;;;3.58;3.38;;;;;;;;;;4993575;28;20408;-84
2023/06/25 13:11:07;;;;;;;3.45;3.20;;;;;;;;;;5006315;28;20783;-85
2023/06/25 13:13:33;;;;;;;4.38;3.97;;;;;;;;;;5010753;28;20393;-84
2023/06/25 13:15:59;;;;;;;3.60;3.40;;;;;;;;;;5010862;28;20770;-85
2023/06/25 13:18:25;;;;;;;3.17;2.97;;;;;;;;;;5010007;28;20478;-86
2023/06/25 13:20:51;;;;;;;4.00;3.30;;;;;;;;;;5010520;28;20858;-84
2023/06/25 13:23:17;;;;;;;4.63;3.60;;;;;;;;;;5010480;28;20393;-84
2023/06/25 13:25:43;;;;;;;3.58;3.38;;;;;;;;;;4997304;28;20384;-84
2023/06/25 13:28:09;;;;;;;3.50;3.30;;;;;;;;;;5013779;28;20411;-85
2023/06/25 13:30:35;;;;;;;3.85;3.55;;;;;;;;;;5014758;28;20731;-84
2023/06/25 13:33:01;;;;;;;3.40;3.20;;;;;;;;;;4997395;28;20940;-85
2023/06/25 13:35:27;;;;;;;3.60;3.30;;;;;;;;;;5012146;28;20483;-85
2023/06/25 13:37:53;;;;;;;3.90;3.60;;;;;;;;;;5009068;28;20844;-85
2023/06/25 13:40:19;;;;;;;3.72;3.45;;;;;;;;;;5013649;28;20467;-86
2023/06/25 13:42:45;;;;;;;3.90;3.70;;;;;;;;;;5014540;28;20381;-85
2023/06/25 13:45:11;;;;;;;3.63;3.42;;;;;;;;;;5013987;28;20403;-86
2023/06/25 13:47:37;;;;;;;3.70;3.40;;;;;;;;;;5010874;28;20862;-86
2023/06/25 13:50:04;;;;;;;3.90;3.60;;;;;;;;;;5024165;28;20371;-85
2023/06/25 13:52:30;;;;;;;4.07;3.78;;;;;;;;;;5034064;28;20467;-86
2023/06/25 13:54:59;;;;;;;4.33;3.90;;;;;;;;;;5025966;28;20472;-85
2023/06/25 13:57:25;;;;;;;4.40;4.10;;;;;;;;;;5028321;28;20892;-84
2023/06/25 13:59:51;;;;;;;3.63;3.42;;;;;;;;;;5026226;28;20456;-85
2023/06/25 14:02:17;;;;;;;3.67;3.47;;;;;;;;;;5004222;28;21203;-86
2023/06/25 14:04:43;;;;;;;3.55;3.35;;;;;;;;;;5018462;28;20395;-85
2023/06/25 14:07:09;;;;;;;3.47;3.28;;;;;;;;;;5034015;28;20506;-87
2023/06/25 14:09:35;;;;;;;3.30;3.10;;;;;;;;;;4999014;28;20394;-85
2023/06/25 14:12:01;;;;;;;3.42;3.22;;;;;;;;;;5010897;28;20766;-87
2023/06/25 14:14:27;;;;;;;3.97;3.67;;;;;;;;;;5013575;28;20412;-85
2023/06/25 14:16:56;;;;;;;3.80;3.50;;;;;;;;;;5012723;28;20412;-87
2023/06/25 14:19:22;;;;;;;3.90;3.35;;;;;;;;;;5013095;28;20396;-86
2023/06/25 14:21:48;;;;;;;3.47;3.28;;;;;;;;;;5012535;28;20511;-85
2023/06/25 14:24:14;;;;;;;3.45;3.25;;;;;;;;;;4996284;28;20388;-84
2023/06/25 14:26:40;;;;;;;3.80;3.50;;;;;;;;;;5013699;28;20855;-85
2023/06/25 14:29:06;;;;;;;3.70;3.40;;;;;;;;;;5013858;28;20381;-85
2023/06/25 14:31:32;;;;;;;5.25;3.53;;;;;;;;;;5013569;28;20388;-85
2023/06/25 14:33:58;;;;;;;3.53;3.22;;;;;;;;;;4996333;28;20420;-84
2023/06/25 14:36:24;;;;;;;3.75;3.50;;;;;;;;;;5013118;28;20470;-87
2023/06/25 14:38:50;;;;;;;3.53;3.33;;;;;;;;;;5011192;28;20389;-88
2023/06/25 14:41:16;;;;;;;3.58;3.38;;;;;;;;;;4995791;28;20384;-87
2023/06/25 14:43:42;;;;;;;5.20;3.75;;;;;;;;;;5013483;28;20423;-87
2023/06/25 14:46:08;;;;;;;4.13;3.83;;;;;;;;;;5012563;28;20420;-86
2023/06/25 14:48:34;;;;;;;3.97;3.67;;;;;;;;;;5012628;28;20381;-87